Terminal Aerodrome Forecast
Issued by NWS Duluth, MN

Home | Current Version | Previous Version | Text Only | Print | Product List | Glossary On
Versions: 1 2 3 4 5 6 7 8 9 10 11 12 13 14 15 16 17 18 19 20 21 22 23 24 25 26 27 28 29 30 31 32 33 34 35 36
000
FTUS43 KDLH 211700 AAC
TAFDLH
TAF AMD
KDLH 211704Z 2117/2212 16012KT 3SM -DZ BR OVC006
      TEMPO 2117/2120 3/4SM BR OVC003
     FM212000 12007KT 1 1/2SM -DZSN BR OVC004
     FM220400 12006KT 3/4SM -DZSN BR OVC002=

USA.gov is the U.S. government's official web portal to all federal, state and local government web resources and services.